Time;durP1;ratioP1;P1;durP2;ratioP2;P2;SDS_P1;SDS_P2;PMS_P1;PMS_P2;Temp;Humidity;BMP_temperature;BMP_pressure;BME280_temperature;BME280_humidity;BME280_pressure;Samples;Min_cycle;Max_cycle;Signal;HPM_P1;HPM_P2
2021/12/22 00:01:12;;;;;;;;;;;;;;;;;;5043542;28;19925;-72
2021/12/22 00:03:45;;;;;;;;;;;;;;;;;;5043792;28;19932;-71
2021/12/22 00:06:13;;;;;;;;;;;;;;;;;;5043500;28;20027;-72
2021/12/22 00:08:40;;;;;;;;;;;;;;;;;;5042394;28;19928;-73
2021/12/22 00:11:10;;;;;;;;;;;;;;;;;;5042774;28;19932;-73
2021/12/22 00:13:37;;;;;;;;;;;;;;;;;;5044203;28;19978;-72
2021/12/22 00:16:04;;;;;;;;;;;;;;;;;;5043905;28;20275;-72
2021/12/22 00:18:31;;;;;;;;;;;;;;;;;;5049474;28;19931;-72
2021/12/22 00:20:59;;;;;;;;;;;;;;;;;;5046638;28;19924;-73
2021/12/22 00:23:27;;;;;;;;;;;;;;;;;;5044472;28;19933;-71
2021/12/22 00:25:54;;;;;;;;;;;;;;;;;;5042037;28;19952;-72
2021/12/22 00:28:21;;;;;;;;;;;;;;;;;;5046551;28;20172;-72
2021/12/22 00:30:50;;;;;;;;;;;;;;;;;;5045186;28;19931;-73
2021/12/22 00:33:17;;;;;;;;;;;;;;;;;;5048573;28;19935;-72
2021/12/22 00:35:45;;;;;;;;;;;;;;;;;;5042099;28;20276;-73
2021/12/22 00:38:12;;;;;;;;;;;;;;;;;;5048333;28;19924;-72
2021/12/22 00:40:39;;;;;;;;;;;;;;;;;;5046560;28;20031;-72
2021/12/22 00:43:06;;;;;;;;;;;;;;;;;;5049723;28;20453;-72
2021/12/22 00:45:35;;;;;;;;;;;;;;;;;;5047987;28;19929;-72
2021/12/22 00:48:02;;;;;;;;;;;;;;;;;;5045496;28;19931;-73
2021/12/22 00:50:29;;;;;;;;;;;;;;;;;;5043733;28;20394;-72
2021/12/22 00:52:56;;;;;;;;;;;;;;;;;;5046800;28;20019;-72
2021/12/22 00:55:23;;;;;;;;;;;;;;;;;;5047977;28;20016;-72
2021/12/22 00:57:50;;;;;;;;;;;;;;;;;;5046606;28;19939;-73
2021/12/22 01:00:17;;;;;;;;;;;;;;;;;;5049393;28;19924;-73
2021/12/22 01:02:44;;;;;;;;;;;;;;;;;;5043779;28;20023;-72
2021/12/22 01:05:12;;;;;;;;;;;;;;;;;;5043237;28;19928;-72
2021/12/22 01:07:39;;;;;;;;;;;;;;;;;;5045817;28;20294;-72
2021/12/22 01:10:06;;;;;;;;;;;;;;;;;;5042940;28;20399;-72
2021/12/22 01:12:33;;;;;;;;;;;;;;;;;;5048278;28;19929;-72
2021/12/22 01:15:00;;;;;;;;;;;;;;;;;;5041962;28;19925;-72
2021/12/22 01:17:34;;;;;;;;;;;;;;;;;;5045557;28;19939;-71
2021/12/22 01:20:07;;;;;;;;;;;;;;;;;;5037327;28;19929;-72
2021/12/22 01:22:47;;;;;;;;;;;;;;;;;;5050266;28;20023;-72
2021/12/22 01:25:15;;;;;;;;;;;;;;;;;;5043369;28;19932;-73
2021/12/22 01:27:43;;;;;;;;;;;;;;;;;;5044724;28;19929;-71
2021/12/22 01:30:10;;;;;;;;;;;;;;;;;;5049472;28;20425;-72
2021/12/22 01:32:37;;;;;;;;;;;;;;;;;;5043012;28;19924;-72
2021/12/22 01:35:05;;;;;;;;;;;;;;;;;;5045174;28;19960;-72
2021/12/22 01:37:32;;;;;;;;;;;;;;;;;;5041820;28;19964;-72
2021/12/22 01:40:00;;;;;;;;;;;;;;;;;;5041036;28;20302;-72
2021/12/22 01:42:27;;;;;;;;;;;;;;;;;;5042874;28;20002;-72
2021/12/22 01:45:13;;;;;;;;;;;;;;;;;;5041564;28;19929;-72
2021/12/22 01:50:24;;;;;;;;;;;;;;;;;;5048583;28;19938;-72
2021/12/22 01:52:51;;;;;;;;;;;;;;;;;;5044601;28;19935;-72
2021/12/22 01:55:24;;;;;;;;;;;;;;;;;;5048252;28;19931;-72
2021/12/22 01:57:51;;;;;;;;;;;;;;;;;;5042068;28;20393;-72
2021/12/22 02:00:18;;;;;;;;;;;;;;;;;;5041898;28;19995;-72
2021/12/22 02:02:45;;;;;;;;;;;;;;;;;;5046369;28;20310;-72
2021/12/22 02:05:12;;;;;;;;;;;;;;;;;;5046911;28;20682;-73
2021/12/22 02:07:39;;;;;;;;;;;;;;;;;;5038805;28;19924;-71
2021/12/22 02:10:21;;;;;;;;;;;;;;;;;;5046914;28;19933;-71
2021/12/22 02:12:52;;;;;;;;;;;;;;;;;;5045797;28;19940;-71
2021/12/22 02:15:19;;;;;;;;;;;;;;;;;;5045715;28;19933;-72
2021/12/22 02:17:46;;;;;;;;;;;;;;;;;;5043107;28;20016;-72
2021/12/22 02:20:13;;;;;;;;;;;;;;;;;;5044346;28;20011;-72
2021/12/22 02:22:43;;;;;;;;;;;;;;;;;;5036543;28;19931;-72
2021/12/22 02:25:16;;;;;;;;;;;;;;;;;;5044682;28;20456;-71
2021/12/22 02:27:48;;;;;;;;;;;;;;;;;;5045499;28;20368;-72
2021/12/22 02:30:21;;;;;;;;;;;;;;;;;;5048206;28;19929;-72
2021/12/22 02:35:40;;;;;;;;;;;;;;;;;;5035643;28;19931;-71
2021/12/22 02:38:14;;;;;;;;;;;;;;;;;;5043587;28;19925;-71
2021/12/22 02:40:42;;;;;;;;;;;;;;;;;;5045482;28;19991;-73
2021/12/22 02:43:10;;;;;;;;;;;;;;;;;;5038518;28;20005;-74
2021/12/22 02:45:37;;;;;;;;;;;;;;;;;;5044664;28;19925;-71
2021/12/22 02:48:05;;;;;;;;;;;;;;;;;;5047778;28;19925;-72
2021/12/22 02:50:36;;;;;;;;;;;;;;;;;;5046583;28;20195;-73
2021/12/22 02:53:05;;;;;;;;;;;;;;;;;;5045458;28;19940;-73
2021/12/22 02:55:44;;;;;;;;;;;;;;;;;;5039794;28;19925;-72
2021/12/22 02:58:14;;;;;;;;;;;;;;;;;;5043868;28;20012;-72
2021/12/22 03:01:04;;;;;;;;;;;;;;;;;;5043638;28;19929;-73
2021/12/22 03:03:47;;;;;;;;;;;;;;;;;;5043128;28;20005;-72
2021/12/22 03:06:20;;;;;;;;;;;;;;;;;;5041003;28;19968;-71
2021/12/22 03:08:47;;;;;;;;;;;;;;;;;;5043051;28;19925;-72
2021/12/22 03:11:15;;;;;;;;;;;;;;;;;;5048404;28;19928;-71
2021/12/22 03:13:42;;;;;;;;;;;;;;;;;;5041120;28;19956;-72
2021/12/22 03:16:09;;;;;;;;;;;;;;;;;;5042349;28;19970;-72
2021/12/22 03:18:36;;;;;;;;;;;;;;;;;;5047340;28;19925;-73
2021/12/22 03:21:15;;;;;;;;;;;;;;;;;;5037230;28;20051;-72
2021/12/22 03:23:42;;;;;;;;;;;;;;;;;;5040786;28;20560;-72
2021/12/22 03:26:09;;;;;;;;;;;;;;;;;;5048374;28;20007;-72
2021/12/22 03:28:36;;;;;;;;;;;;;;;;;;5044457;28;19933;-71
2021/12/22 03:31:03;;;;;;;;;;;;;;;;;;5038305;28;19932;-72
2021/12/22 03:33:30;;;;;;;;;;;;;;;;;;5045065;28;20297;-71
2021/12/22 03:35:57;;;;;;;;;;;;;;;;;;5046285;28;20309;-72
2021/12/22 03:38:24;;;;;;;;;;;;;;;;;;5043909;28;19983;-72
2021/12/22 03:40:51;;;;;;;;;;;;;;;;;;5044019;28;19931;-73
2021/12/22 03:43:18;;;;;;;;;;;;;;;;;;5044620;28;19958;-73
2021/12/22 03:45:45;;;;;;;;;;;;;;;;;;5043545;28;20221;-73
2021/12/22 03:48:16;;;;;;;;;;;;;;;;;;5041166;28;20394;-73
2021/12/22 03:50:43;;;;;;;;;;;;;;;;;;5039812;28;20437;-73
2021/12/22 03:53:10;;;;;;;;;;;;;;;;;;5045788;28;20028;-73
2021/12/22 03:55:37;;;;;;;;;;;;;;;;;;5045907;28;19933;-72
2021/12/22 03:58:04;;;;;;;;;;;;;;;;;;5046336;28;19971;-72
2021/12/22 04:00:31;;;;;;;;;;;;;;;;;;5050056;28;19932;-73
2021/12/22 04:03:01;;;;;;;;;;;;;;;;;;5043586;28;20394;-72
2021/12/22 04:05:28;;;;;;;;;;;;;;;;;;5048508;28;19925;-73
2021/12/22 04:07:56;;;;;;;;;;;;;;;;;;5052474;28;20362;-73
2021/12/22 04:10:23;;;;;;;;;;;;;;;;;;5041547;28;19931;-72
2021/12/22 04:12:50;;;;;;;;;;;;;;;;;;5043716;28;19971;-73
2021/12/22 04:15:17;;;;;;;;;;;;;;;;;;5047701;28;19933;-73
2021/12/22 04:17:45;;;;;;;;;;;;;;;;;;5048721;28;20035;-72
2021/12/22 04:20:12;;;;;;;;;;;;;;;;;;5048842;28;20011;-72
2021/12/22 04:22:39;;;;;;;;;;;;;;;;;;5047601;28;20307;-72
2021/12/22 04:25:07;;;;;;;;;;;;;;;;;;5049132;28;19963;-73
2021/12/22 04:27:34;;;;;;;;;;;;;;;;;;5048286;28;19924;-73
2021/12/22 04:30:01;;;;;;;;;;;;;;;;;;5050453;28;20365;-73
2021/12/22 04:32:28;;;;;;;;;;;;;;;;;;5043590;28;20004;-73
2021/12/22 04:34:55;;;;;;;;;;;;;;;;;;5043012;28;19960;-73
2021/12/22 04:37:22;;;;;;;;;;;;;;;;;;5049021;28;20298;-73
2021/12/22 04:39:49;;;;;;;;;;;;;;;;;;5049319;28;19972;-73
2021/12/22 04:42:17;;;;;;;;;;;;;;;;;;5051393;28;19999;-73
2021/12/22 04:44:44;;;;;;;;;;;;;;;;;;5046406;28;20011;-73
2021/12/22 04:47:11;;;;;;;;;;;;;;;;;;5041961;28;19960;-73
2021/12/22 04:49:40;;;;;;;;;;;;;;;;;;5047225;28;20004;-72
2021/12/22 04:52:08;;;;;;;;;;;;;;;;;;5051780;28;19925;-72
2021/12/22 04:54:47;;;;;;;;;;;;;;;;;;5047590;28;19924;-72
2021/12/22 04:57:14;;;;;;;;;;;;;;;;;;5049417;28;19925;-72
2021/12/22 04:59:41;;;;;;;;;;;;;;;;;;5043837;28;19931;-72
2021/12/22 05:02:09;;;;;;;;;;;;;;;;;;5047230;28;19925;-72
2021/12/22 05:04:36;;;;;;;;;;;;;;;;;;5043260;28;20374;-72
2021/12/22 05:07:03;;;;;;;;;;;;;;;;;;5046348;28;19932;-72
2021/12/22 05:09:30;;;;;;;;;;;;;;;;;;5048482;28;19924;-72
2021/12/22 05:11:57;;;;;;;;;;;;;;;;;;5046166;28;19925;-72
2021/12/22 05:14:24;;;;;;;;;;;;;;;;;;5051624;28;19936;-72
2021/12/22 05:16:53;;;;;;;;;;;;;;;;;;5045390;28;19924;-73
2021/12/22 05:19:20;;;;;;;;;;;;;;;;;;5045065;28;20019;-73
2021/12/22 05:21:47;;;;;;;;;;;;;;;;;;5042599;28;19931;-73
2021/12/22 05:24:14;;;;;;;;;;;;;;;;;;5046694;28;19951;-73
2021/12/22 05:26:41;;;;;;;;;;;;;;;;;;5047265;28;19924;-72
2021/12/22 05:29:08;;;;;;;;;;;;;;;;;;5049420;28;19925;-71
2021/12/22 05:31:35;;;;;;;;;;;;;;;;;;5047282;28;20384;-72
2021/12/22 05:34:02;;;;;;;;;;;;;;;;;;5049027;28;20011;-72
2021/12/22 05:36:29;;;;;;;;;;;;;;;;;;5041811;28;19987;-72
2021/12/22 05:38:56;;;;;;;;;;;;;;;;;;5048306;28;19925;-72
2021/12/22 05:41:23;;;;;;;;;;;;;;;;;;5049780;28;19924;-72
2021/12/22 05:43:52;;;;;;;;;;;;;;;;;;5037928;28;19933;-72
2021/12/22 05:46:19;;;;;;;;;;;;;;;;;;5043102;28;19928;-72
2021/12/22 05:48:48;;;;;;;;;;;;;;;;;;5047394;28;19931;-72
2021/12/22 05:51:16;;;;;;;;;;;;;;;;;;5046917;28;19925;-73
2021/12/22 05:53:43;;;;;;;;;;;;;;;;;;5042377;28;19929;-73
2021/12/22 05:56:11;;;;;;;;;;;;;;;;;;5047032;28;19932;-72
2021/12/22 05:58:38;;;;;;;;;;;;;;;;;;5045772;28;19925;-73
2021/12/22 06:01:08;;;;;;;;;;;;;;;;;;5039551;28;19983;-73
2021/12/22 06:03:35;;;;;;;;;;;;;;;;;;5040068;28;20358;-72
2021/12/22 06:06:08;;;;;;;;;;;;;;;;;;5046846;28;20338;-72
2021/12/22 06:22:04;;;;;;;;;;;;;;;;;;4945295;28;19930;-75
2021/12/22 06:24:31;;;;;;;;;;;;;;;;;;5025362;28;19933;-75
2021/12/22 06:26:58;;;;;;;;;;;;;;;;;;5050175;28;20009;-75
2021/12/22 06:29:25;;;;;;;;;;;;;;;;;;5047640;28;20313;-74
2021/12/22 06:31:52;;;;;;;;;;;;;;;;;;5047751;28;19936;-74
2021/12/22 06:34:19;;;;;;;;;;;;;;;;;;5048849;28;20026;-74
2021/12/22 06:36:46;;;;;;;;;;;;;;;;;;5048522;28;19933;-74
2021/12/22 06:39:13;;;;;;;;;;;;;;;;;;5048879;28;19984;-74
2021/12/22 06:41:40;;;;;;;;;;;;;;;;;;5048854;28;19962;-75
2021/12/22 06:44:07;;;;;;;;;;;;;;;;;;5051062;28;19924;-75
2021/12/22 06:46:34;;;;;;;;;;;;;;;;;;5047074;28;20386;-74
2021/12/22 06:49:01;;;;;;;;;;;;;;;;;;5045069;28;19925;-75
2021/12/22 06:51:28;;;;;;;;;;;;;;;;;;5049729;28;19925;-76
2021/12/22 06:53:55;;;;;;;;;;;;;;;;;;5048582;28;19925;-75
2021/12/22 06:56:22;;;;;;;;;;;;;;;;;;5048798;28;19925;-75
2021/12/22 06:58:49;;;;;;;;;;;;;;;;;;5067197;22;21474;-70
2021/12/22 07:01:19;;;;;;;;;;;;;;;;;;5067199;28;19940;-70
2021/12/22 07:03:48;;;;;;;;;;;;;;;;;;5065249;28;19925;-70
2021/12/22 07:06:17;;;;;;;;;;;;;;;;;;5063102;28;21434;-68
2021/12/22 07:08:44;;;;;;;;;;;;;;;;;;5069132;28;20304;-70
2021/12/22 07:11:11;;;;;;;;;;;;;;;;;;5071467;28;19928;-69
2021/12/22 07:13:38;;;;;;;;;;;;;;;;;;5078152;28;19924;-69
2021/12/22 07:16:05;;;;;;;;;;;;;;;;;;5065297;28;19931;-70
2021/12/22 07:18:32;;;;;;;;;;;;;;;;;;5068715;28;19928;-70
2021/12/22 07:20:59;;;;;;;;;;;;;;;;;;5066895;28;20370;-69
2021/12/22 07:23:26;;;;;;;;;;;;;;;;;;5065809;28;19978;-70
2021/12/22 07:25:53;;;;;;;;;;;;;;;;;;5073269;28;19925;-69
2021/12/22 07:28:20;;;;;;;;;;;;;;;;;;5063982;28;19932;-70
2021/12/22 07:30:47;;;;;;;;;;;;;;;;;;5066255;28;20307;-71
2021/12/22 07:33:14;;;;;;;;;;;;;;;;;;5068976;28;19924;-71
2021/12/22 07:35:41;;;;;;;;;;;;;;;;;;5068488;28;19933;-70
2021/12/22 07:38:08;;;;;;;;;;;;;;;;;;5066944;28;19941;-70
2021/12/22 07:40:35;;;;;;;;;;;;;;;;;;5065553;28;20341;-69
2021/12/22 07:43:02;;;;;;;;;;;;;;;;;;5069013;28;19924;-69
2021/12/22 07:45:41;;;;;;;;;;;;;;;;;;5068546;28;19929;-69
2021/12/22 07:48:08;;;;;;;;;;;;;;;;;;5068591;28;20394;-69
2021/12/22 07:50:35;;;;;;;;;;;;;;;;;;5065394;28;19926;-70
2021/12/22 07:53:02;;;;;;;;;;;;;;;;;;5071159;28;19924;-70
2021/12/22 07:55:29;;;;;;;;;;;;;;;;;;5069893;28;19931;-69
2021/12/22 07:57:56;;;;;;;;;;;;;;;;;;5066189;28;21016;-70
2021/12/22 08:00:23;;;;;;;;;;;;;;;;;;5066213;28;19946;-69
2021/12/22 08:02:49;;;;;;;;;;;;;;;;;;5068557;28;19933;-70
2021/12/22 08:05:16;;;;;;;;;;;;;;;;;;5068977;28;19925;-70
2021/12/22 08:07:43;;;;;;;;;;;;;;;;;;5067498;28;20003;-70
2021/12/22 08:10:10;;;;;;;;;;;;;;;;;;5072405;28;20421;-70
2021/12/22 08:12:37;;;;;;;;;;;;;;;;;;5071760;28;19934;-70
2021/12/22 08:15:04;;;;;;;;;;;;;;;;;;5069157;28;19970;-69
2021/12/22 08:17:32;;;;;;;;;;;;;;;;;;5068245;28;19925;-69
2021/12/22 08:19:59;;;;;;;;;;;;;;;;;;5067079;28;19935;-70
2021/12/22 08:22:26;;;;;;;;;;;;;;;;;;5070190;28;19925;-70
2021/12/22 08:24:53;;;;;;;;;;;;;;;;;;5068252;28;19924;-70
2021/12/22 08:27:21;;;;;;;;;;;;;;;;;;5068809;28;20428;-70
2021/12/22 08:29:48;;;;;;;;;;;;;;;;;;5068726;28;19929;-71
2021/12/22 08:32:15;;;;;;;;;;;;;;;;;;5067750;28;19932;-68
2021/12/22 08:34:42;;;;;;;;;;;;;;;;;;5074879;28;19924;-71
2021/12/22 08:39:54;;;;;;;;;;;;;;;;;;5077434;28;20417;-70
2021/12/22 08:42:21;;;;;;;;;;;;;;;;;;5071408;28;19925;-70
2021/12/22 08:44:48;;;;;;;;;;;;;;;;;;5073618;28;19932;-70
2021/12/22 08:47:14;;;;;;;;;;;;;;;;;;5064536;28;20296;-68
2021/12/22 08:49:45;;;;;;;;;;;;;;;;;;5062511;28;19939;-71
2021/12/22 08:52:12;;;;;;;;;;;;;;;;;;5065281;28;19924;-70
2021/12/22 08:54:39;;;;;;;;;;;;;;;;;;5074281;28;19940;-68
2021/12/22 08:57:07;;;;;;;;;;;;;;;;;;5062672;28;19931;-68
2021/12/22 08:59:34;;;;;;;;;;;;;;;;;;5063992;28;19935;-68
2021/12/22 09:02:01;;;;;;;;;;;;;;;;;;5052776;28;20029;-70
2021/12/22 09:04:28;;;;;;;;;;;;;;;;;;5069871;28;19963;-70
2021/12/22 09:06:55;;;;;;;;;;;;;;;;;;5073412;28;19967;-69
2021/12/22 09:09:22;;;;;;;;;;;;;;;;;;5066810;28;19943;-70
2021/12/22 09:11:49;;;;;;;;;;;;;;;;;;5073042;28;19925;-68
2021/12/22 09:14:16;;;;;;;;;;;;;;;;;;5066345;28;19986;-68
2021/12/22 09:16:43;;;;;;;;;;;;;;;;;;5064869;28;19932;-71
2021/12/22 09:19:09;;;;;;;;;;;;;;;;;;5071218;28;20271;-69
2021/12/22 09:21:36;;;;;;;;;;;;;;;;;;5067600;28;19950;-68
2021/12/22 09:24:03;;;;;;;;;;;;;;;;;;5070583;28;19997;-70
2021/12/22 09:26:30;;;;;;;;;;;;;;;;;;5068539;28;19924;-69
2021/12/22 09:28:57;;;;;;;;;;;;;;;;;;5069618;28;19945;-72
2021/12/22 09:31:24;;;;;;;;;;;;;;;;;;5070675;28;19924;-68
2021/12/22 09:33:51;;;;;;;;;;;;;;;;;;5060879;28;19925;-69
2021/12/22 09:36:18;;;;;;;;;;;;;;;;;;5070716;28;19968;-71
2021/12/22 09:38:45;;;;;;;;;;;;;;;;;;5071348;28;20011;-69
2021/12/22 09:41:12;;;;;;;;;;;;;;;;;;5065942;28;19931;-69
2021/12/22 09:43:39;;;;;;;;;;;;;;;;;;5063884;28;20318;-70
2021/12/22 09:46:09;;;;;;;;;;;;;;;;;;5068193;28;19955;-72
2021/12/22 09:48:48;;;;;;;;;;;;;;;;;;5072586;28;19925;-70
2021/12/22 09:54:00;;;;;;;;;;;;;;;;;;5066748;28;19919;-68
2021/12/22 09:56:27;;;;;;;;;;;;;;;;;;5070358;28;20010;-69
2021/12/22 09:58:54;;;;;;;;;;;;;;;;;;5061313;28;19935;-68
2021/12/22 10:01:23;;;;;;;;;;;;;;;;;;5068580;28;19924;-70
2021/12/22 10:03:50;;;;;;;;;;;;;;;;;;5070400;28;20301;-70
2021/12/22 10:06:17;;;;;;;;;;;;;;;;;;5070772;28;20271;-68
2021/12/22 10:08:44;;;;;;;;;;;;;;;;;;5070325;28;20385;-69
2021/12/22 10:11:11;;;;;;;;;;;;;;;;;;5068715;28;19932;-70
2021/12/22 10:13:43;;;;;;;;;;;;;;;;;;5065827;28;19924;-70
2021/12/22 10:16:10;;;;;;;;;;;;;;;;;;5067325;28;20027;-69
2021/12/22 10:18:37;;;;;;;;;;;;;;;;;;5069694;28;19932;-68
2021/12/22 10:21:04;;;;;;;;;;;;;;;;;;5068775;28;19925;-70
2021/12/22 10:23:31;;;;;;;;;;;;;;;;;;5068740;28;19928;-70
2021/12/22 10:26:01;;;;;;;;;;;;;;;;;;5070796;28;20378;-70
2021/12/22 10:28:28;;;;;;;;;;;;;;;;;;5067753;28;19925;-69
2021/12/22 10:30:56;;;;;;;;;;;;;;;;;;5066348;28;20003;-69
2021/12/22 10:33:23;;;;;;;;;;;;;;;;;;5065678;28;19925;-70
2021/12/22 10:35:50;;;;;;;;;;;;;;;;;;5066014;28;19978;-69
2021/12/22 10:38:17;;;;;;;;;;;;;;;;;;5064826;28;19929;-70
2021/12/22 10:40:44;;;;;;;;;;;;;;;;;;5070100;28;20011;-69
2021/12/22 10:43:11;;;;;;;;;;;;;;;;;;5068875;28;19928;-70
2021/12/22 10:45:38;;;;;;;;;;;;;;;;;;5058105;28;19978;-70
2021/12/22 10:50:49;;;;;;;;;;;;;;;;;;5068187;28;19981;-69
2021/12/22 10:53:16;;;;;;;;;;;;;;;;;;5061579;28;20362;-73
2021/12/22 10:55:43;;;;;;;;;;;;;;;;;;5063995;28;20274;-76
2021/12/22 10:58:10;;;;;;;;;;;;;;;;;;5062171;28;19928;-76
2021/12/22 11:00:40;;;;;;;;;;;;;;;;;;5059851;28;20229;-74
2021/12/22 11:03:07;;;;;;;;;;;;;;;;;;5064970;28;19924;-75
2021/12/22 11:05:34;;;;;;;;;;;;;;;;;;5066326;28;19972;-73
2021/12/22 11:08:01;;;;;;;;;;;;;;;;;;5066507;28;20374;-74
2021/12/22 11:10:28;;;;;;;;;;;;;;;;;;5063087;28;19931;-73
2021/12/22 11:12:55;;;;;;;;;;;;;;;;;;5069196;28;20282;-74
2021/12/22 11:15:23;;;;;;;;;;;;;;;;;;5067544;28;19924;-74
2021/12/22 11:17:49;;;;;;;;;;;;;;;;;;5067408;28;19932;-74
2021/12/22 11:20:16;;;;;;;;;;;;;;;;;;5068338;28;19925;-73
2021/12/22 11:22:51;;;;;;;;;;;;;;;;;;5062621;28;20003;-73
2021/12/22 11:25:18;;;;;;;;;;;;;;;;;;5067272;28;19928;-74
2021/12/22 11:27:45;;;;;;;;;;;;;;;;;;5068315;28;20378;-74
2021/12/22 11:30:12;;;;;;;;;;;;;;;;;;5068883;28;19925;-74
2021/12/22 11:32:39;;;;;;;;;;;;;;;;;;5066350;28;19929;-78
2021/12/22 11:35:06;;;;;;;;;;;;;;;;;;5064988;28;19924;-73
2021/12/22 11:37:33;;;;;;;;;;;;;;;;;;5067579;28;19940;-79
2021/12/22 11:40:01;;;;;;;;;;;;;;;;;;5069144;28;19954;-75
2021/12/22 11:42:31;;;;;;;;;;;;;;;;;;5063898;28;19930;-75
2021/12/22 11:44:58;;;;;;;;;;;;;;;;;;5062945;28;19972;-74
2021/12/22 11:47:25;;;;;;;;;;;;;;;;;;5064094;28;19938;-76
2021/12/22 11:49:52;;;;;;;;;;;;;;;;;;5061334;28;19948;-72
2021/12/22 11:52:19;;;;;;;;;;;;;;;;;;5065013;28;19940;-75
2021/12/22 11:54:46;;;;;;;;;;;;;;;;;;5068650;28;19925;-74
2021/12/22 11:57:13;;;;;;;;;;;;;;;;;;5067613;28;19932;-74
2021/12/22 11:59:40;;;;;;;;;;;;;;;;;;5060574;28;20309;-75
2021/12/22 12:02:07;;;;;;;;;;;;;;;;;;5060712;28;20395;-75
2021/12/22 12:04:34;;;;;;;;;;;;;;;;;;5066681;28;19929;-74
2021/12/22 12:07:01;;;;;;;;;;;;;;;;;;5068766;28;19925;-73
2021/12/22 12:09:28;;;;;;;;;;;;;;;;;;5067505;28;19932;-75
2021/12/22 12:11:56;;;;;;;;;;;;;;;;;;5063594;28;19931;-74
2021/12/22 12:14:23;;;;;;;;;;;;;;;;;;5062138;28;19975;-74
2021/12/22 12:22:21;;;;;;;;;;;;;;;;;;5067927;28;19962;-64
2021/12/22 12:24:48;;;;;;;;;;;;;;;;;;5068634;28;19925;-72
2021/12/22 12:27:15;;;;;;;;;;;;;;;;;;5068961;28;19931;-69
2021/12/22 12:29:42;;;;;;;;;;;;;;;;;;5056969;28;20015;-68
2021/12/22 12:32:09;;;;;;;;;;;;;;;;;;5062696;28;20171;-68
2021/12/22 12:34:39;;;;;;;;;;;;;;;;;;5070000;28;19924;-74
2021/12/22 12:37:08;;;;;;;;;;;;;;;;;;5070480;28;20003;-76
2021/12/22 12:39:34;;;;;;;;;;;;;;;;;;5067979;28;19925;-73
2021/12/22 12:42:01;;;;;;;;;;;;;;;;;;5070736;28;20317;-73
2021/12/22 12:44:28;;;;;;;;;;;;;;;;;;5071249;28;19924;-73
2021/12/22 12:46:55;;;;;;;;;;;;;;;;;;5068443;28;19932;-74
2021/12/22 12:49:22;;;;;;;;;;;;;;;;;;5070502;28;19932;-73
2021/12/22 12:51:50;;;;;;;;;;;;;;;;;;5068648;28;19932;-72
2021/12/22 12:54:17;;;;;;;;;;;;;;;;;;5065728;28;19925;-73
2021/12/22 12:56:43;;;;;;;;;;;;;;;;;;5070012;28;19924;-72
2021/12/22 12:59:11;;;;;;;;;;;;;;;;;;5079915;22;19922;-73
2021/12/22 13:01:37;;;;;;;;;;;;;;;;;;5038046;28;19929;-74
2021/12/22 13:04:04;;;;;;;;;;;;;;;;;;5046178;28;20416;-75
2021/12/22 13:06:31;;;;;;;;;;;;;;;;;;5052973;28;19935;-75
2021/12/22 13:08:58;;;;;;;;;;;;;;;;;;5052203;28;19925;-73
2021/12/22 13:11:25;;;;;;;;;;;;;;;;;;5044868;28;19932;-75
2021/12/22 13:16:33;;;;;;;;;;;;;;;;;;5024050;28;19925;-74
2021/12/22 13:19:00;;;;;;;;;;;;;;;;;;5047502;28;19932;-75
2021/12/22 13:21:27;;;;;;;;;;;;;;;;;;5044134;28;19932;-75
2021/12/22 13:23:54;;;;;;;;;;;;;;;;;;5052059;28;20461;-75
2021/12/22 13:26:21;;;;;;;;;;;;;;;;;;5044983;28;19929;-75
2021/12/22 13:28:48;;;;;;;;;;;;;;;;;;5049638;28;19939;-75
2021/12/22 13:31:15;;;;;;;;;;;;;;;;;;5045344;28;19925;-76
2021/12/22 13:33:43;;;;;;;;;;;;;;;;;;5047781;28;19929;-76
2021/12/22 13:36:12;;;;;;;;;;;;;;;;;;5045288;28;19991;-75
2021/12/22 13:38:40;;;;;;;;;;;;;;;;;;5049508;28;20436;-75
2021/12/22 13:41:07;;;;;;;;;;;;;;;;;;5043917;28;20045;-76
2021/12/22 13:43:34;;;;;;;;;;;;;;;;;;5050419;28;19936;-74
2021/12/22 13:46:01;;;;;;;;;;;;;;;;;;5046429;28;19928;-75
2021/12/22 13:48:28;;;;;;;;;;;;;;;;;;5050024;28;20004;-75
2021/12/22 13:50:55;;;;;;;;;;;;;;;;;;5044654;28;19925;-75
2021/12/22 13:53:22;;;;;;;;;;;;;;;;;;5048220;28;19932;-74
2021/12/22 13:55:49;;;;;;;;;;;;;;;;;;5048217;28;19936;-75
2021/12/22 13:58:16;;;;;;;;;;;;;;;;;;5050540;28;19925;-74
2021/12/22 14:00:43;;;;;;;;;;;;;;;;;;5047688;28;19931;-75
2021/12/22 14:03:10;;;;;;;;;;;;;;;;;;5045477;28;19925;-74
2021/12/22 14:05:37;;;;;;;;;;;;;;;;;;5049275;28;19932;-74
2021/12/22 14:08:03;;;;;;;;;;;;;;;;;;5044149;28;20306;-75
2021/12/22 14:10:30;;;;;;;;;;;;;;;;;;5046880;28;19929;-76
2021/12/22 14:12:57;;;;;;;;;;;;;;;;;;5047336;28;19975;-75
2021/12/22 14:15:24;;;;;;;;;;;;;;;;;;5044618;28;19931;-75
2021/12/22 14:17:51;;;;;;;;;;;;;;;;;;5048473;28;19928;-75
2021/12/22 14:20:18;;;;;;;;;;;;;;;;;;5047430;28;20019;-75
2021/12/22 14:22:45;;;;;;;;;;;;;;;;;;5050314;28;19925;-76
2021/12/22 14:25:14;;;;;;;;;;;;;;;;;;5048808;28;20309;-76
2021/12/22 14:27:49;;;;;;;;;;;;;;;;;;5045482;28;20154;-76
2021/12/22 14:30:16;;;;;;;;;;;;;;;;;;5044938;28;19928;-74
2021/12/22 14:32:42;;;;;;;;;;;;;;;;;;5045488;28;19932;-75
2021/12/22 14:35:10;;;;;;;;;;;;;;;;;;5042828;28;19925;-75
2021/12/22 14:37:37;;;;;;;;;;;;;;;;;;5047343;28;20016;-75
2021/12/22 14:40:04;;;;;;;;;;;;;;;;;;5046989;28;20019;-75
2021/12/22 14:42:31;;;;;;;;;;;;;;;;;;5044543;28;19929;-74
2021/12/22 14:44:58;;;;;;;;;;;;;;;;;;5047772;28;20013;-75
2021/12/22 14:47:25;;;;;;;;;;;;;;;;;;5045002;28;19925;-76
2021/12/22 14:49:52;;;;;;;;;;;;;;;;;;5043808;28;19940;-74
2021/12/22 14:52:19;;;;;;;;;;;;;;;;;;5043818;28;20365;-74
2021/12/22 14:54:48;;;;;;;;;;;;;;;;;;5048391;28;20405;-72
2021/12/22 14:57:15;;;;;;;;;;;;;;;;;;5028129;28;19955;-73
2021/12/22 14:59:42;;;;;;;;;;;;;;;;;;5041611;28;19925;-74
2021/12/22 15:02:10;;;;;;;;;;;;;;;;;;5041140;28;19925;-75
2021/12/22 15:04:37;;;;;;;;;;;;;;;;;;5039903;28;19957;-75
2021/12/22 15:07:04;;;;;;;;;;;;;;;;;;5047262;28;19935;-76
2021/12/22 15:09:31;;;;;;;;;;;;;;;;;;5040936;28;19925;-76
2021/12/22 15:11:58;;;;;;;;;;;;;;;;;;5041358;28;20329;-75
2021/12/22 15:14:25;;;;;;;;;;;;;;;;;;5047678;28;19925;-74
2021/12/22 15:16:52;;;;;;;;;;;;;;;;;;5049323;28;19936;-73
2021/12/22 15:19:19;;;;;;;;;;;;;;;;;;5041347;28;19934;-78
2021/12/22 15:21:46;;;;;;;;;;;;;;;;;;5041663;28;19925;-78
2021/12/22 15:24:13;;;;;;;;;;;;;;;;;;5043942;28;19947;-79
2021/12/22 15:26:42;;;;;;;;;;;;;;;;;;5046995;28;19924;-78
2021/12/22 15:29:09;;;;;;;;;;;;;;;;;;5048261;28;20301;-78
2021/12/22 15:31:36;;;;;;;;;;;;;;;;;;5042569;28;19933;-77
2021/12/22 15:34:03;;;;;;;;;;;;;;;;;;5045317;28;19925;-78
2021/12/22 15:36:30;;;;;;;;;;;;;;;;;;5049733;28;19929;-78
2021/12/22 15:38:57;;;;;;;;;;;;;;;;;;5041428;28;19924;-79
2021/12/22 15:41:24;;;;;;;;;;;;;;;;;;5044309;28;19925;-79
2021/12/22 15:43:51;;;;;;;;;;;;;;;;;;5053808;28;19925;-79
2021/12/22 15:46:18;;;;;;;;;;;;;;;;;;5046465;28;20289;-77
2021/12/22 15:48:45;;;;;;;;;;;;;;;;;;5051164;28;22340;-76
2021/12/22 15:51:12;;;;;;;;;;;;;;;;;;5043666;28;19929;-78
2021/12/22 15:53:39;;;;;;;;;;;;;;;;;;5042822;28;19925;-77
2021/12/22 15:56:06;;;;;;;;;;;;;;;;;;5047600;28;19991;-78
2021/12/22 15:58:34;;;;;;;;;;;;;;;;;;5050196;28;19925;-77
2021/12/22 16:01:01;;;;;;;;;;;;;;;;;;5035793;28;20490;-77
2021/12/22 16:03:28;;;;;;;;;;;;;;;;;;5043127;28;19925;-77
2021/12/22 16:05:56;;;;;;;;;;;;;;;;;;5048956;28;19925;-78
2021/12/22 16:08:23;;;;;;;;;;;;;;;;;;5039726;28;19939;-78
2021/12/22 16:10:50;;;;;;;;;;;;;;;;;;5050922;28;19940;-80
2021/12/22 16:13:17;;;;;;;;;;;;;;;;;;5051294;28;19931;-80
2021/12/22 16:15:44;;;;;;;;;;;;;;;;;;5050450;28;19924;-78
2021/12/22 16:18:12;;;;;;;;;;;;;;;;;;5044394;28;20375;-78
2021/12/22 16:20:39;;;;;;;;;;;;;;;;;;5040862;28;20554;-77
2021/12/22 16:23:06;;;;;;;;;;;;;;;;;;5043335;28;20421;-77
2021/12/22 16:25:33;;;;;;;;;;;;;;;;;;5043467;28;20313;-79
2021/12/22 16:28:00;;;;;;;;;;;;;;;;;;5046370;28;19932;-78
2021/12/22 16:30:27;;;;;;;;;;;;;;;;;;5048855;28;19925;-79
2021/12/22 16:32:54;;;;;;;;;;;;;;;;;;5046088;28;20371;-77
2021/12/22 16:35:21;;;;;;;;;;;;;;;;;;5048739;28;19947;-75
2021/12/22 16:37:48;;;;;;;;;;;;;;;;;;5048066;28;19925;-74
2021/12/22 16:40:16;;;;;;;;;;;;;;;;;;5229694;22;19932;-75
2021/12/22 16:42:43;;;;;;;;;;;;;;;;;;5044999;28;19931;-79
2021/12/22 16:45:10;;;;;;;;;;;;;;;;;;5042196;28;19929;-77
2021/12/22 16:47:37;;;;;;;;;;;;;;;;;;5045219;28;19936;-75
2021/12/22 16:50:04;;;;;;;;;;;;;;;;;;5043263;28;19929;-75
2021/12/22 16:52:31;;;;;;;;;;;;;;;;;;5045415;28;19935;-76
2021/12/22 16:54:58;;;;;;;;;;;;;;;;;;5042880;28;19932;-75
2021/12/22 16:57:25;;;;;;;;;;;;;;;;;;5038476;28;19932;-75
2021/12/22 16:59:52;;;;;;;;;;;;;;;;;;5041546;28;20421;-77
2021/12/22 17:02:19;;;;;;;;;;;;;;;;;;5047417;28;20301;-76
2021/12/22 17:04:46;;;;;;;;;;;;;;;;;;5045798;28;19940;-76
2021/12/22 17:07:13;;;;;;;;;;;;;;;;;;5046507;28;20382;-75
2021/12/22 17:09:40;;;;;;;;;;;;;;;;;;5042185;28;19947;-77
2021/12/22 17:12:07;;;;;;;;;;;;;;;;;;5048082;28;20035;-75
2021/12/22 17:14:34;;;;;;;;;;;;;;;;;;5047707;28;19935;-75
2021/12/22 17:17:06;;;;;;;;;;;;;;;;;;5045089;28;19941;-74
2021/12/22 17:19:33;;;;;;;;;;;;;;;;;;5044469;28;20373;-77
2021/12/22 17:22:00;;;;;;;;;;;;;;;;;;5045387;28;19925;-75
2021/12/22 17:24:27;;;;;;;;;;;;;;;;;;5042988;28;19935;-77